createdAt,value
2017-07-26T00:00:24.262Z,88.87
2017-07-26T00:02:52.619Z,89.55
2017-07-26T00:05:20.960Z,89.72
2017-07-26T00:07:49.319Z,89.28
2017-07-26T00:10:17.679Z,88.06
2017-07-26T00:12:46.033Z,88.69
2017-07-26T00:15:14.387Z,88.80
2017-07-26T00:17:42.714Z,88.71
2017-07-26T00:20:11.087Z,88.57
2017-07-26T00:22:39.441Z,88.64
2017-07-26T00:25:07.774Z,89.28
2017-07-26T00:27:36.111Z,88.54
2017-07-26T00:30:04.422Z,89.25
2017-07-26T00:32:32.760Z,88.96
2017-07-26T00:35:01.081Z,88.79
2017-07-26T00:37:29.421Z,88.49
2017-07-26T00:39:57.778Z,87.50
2017-07-26T00:42:26.107Z,87.70
2017-07-26T00:44:54.450Z,88.40
2017-07-26T00:47:22.776Z,88.21
2017-07-26T00:49:51.120Z,88.36
2017-07-26T00:52:19.463Z,87.51
2017-07-26T00:54:47.871Z,87.35
2017-07-26T00:57:16.498Z,86.84
2017-07-26T00:59:44.833Z,87.86
2017-07-26T01:02:13.148Z,88.80
2017-07-26T01:04:41.505Z,89.21
2017-07-26T01:07:09.838Z,87.87
2017-07-26T01:09:38.202Z,88.67
2017-07-26T01:12:06.554Z,89.75
2017-07-26T01:14:34.867Z,88.32
2017-07-26T01:17:03.200Z,89.07
2017-07-26T01:19:31.513Z,88.48
2017-07-26T01:21:59.855Z,88.51
2017-07-26T01:24:28.204Z,88.56
2017-07-26T01:26:56.524Z,88.78
2017-07-26T01:29:24.869Z,87.90
2017-07-26T01:31:53.192Z,89.02
2017-07-26T01:34:21.531Z,88.89
2017-07-26T01:36:49.902Z,89.40
2017-07-26T01:39:18.229Z,86.94
2017-07-26T01:41:46.587Z,86.44
2017-07-26T01:44:14.908Z,86.95
2017-07-26T01:46:43.521Z,88.26
2017-07-26T01:49:11.846Z,88.17
2017-07-26T01:51:40.159Z,87.36
2017-07-26T01:54:08.492Z,87.65
2017-07-26T01:56:36.834Z,87.18
2017-07-26T01:59:05.191Z,87.14
2017-07-26T02:01:33.538Z,88.59
2017-07-26T02:04:01.893Z,87.46
2017-07-26T02:06:30.228Z,87.17
2017-07-26T02:08:58.667Z,86.74
2017-07-26T02:11:27.010Z,87.62
2017-07-26T02:13:55.342Z,88.39
2017-07-26T02:16:23.659Z,88.81
2017-07-26T02:18:52.266Z,89.10
2017-07-26T02:21:20.579Z,88.69
2017-07-26T02:23:48.914Z,88.83
2017-07-26T02:26:17.256Z,88.85
2017-07-26T02:28:45.583Z,88.60
2017-07-26T02:31:13.938Z,88.31
2017-07-26T02:33:42.273Z,89.01
2017-07-26T02:36:10.651Z,89.29
2017-07-26T02:38:39.010Z,88.36
2017-07-26T02:41:07.326Z,87.64
2017-07-26T02:43:35.688Z,88.53
2017-07-26T02:46:04.035Z,88.20
2017-07-26T02:48:32.385Z,88.85
2017-07-26T02:51:00.722Z,89.28
2017-07-26T02:53:29.059Z,89.19
2017-07-26T02:55:57.406Z,89.13
2017-07-26T02:58:25.749Z,89.35
2017-07-26T03:00:54.097Z,89.27
2017-07-26T03:03:22.416Z,89.46
2017-07-26T03:05:50.756Z,88.68
2017-07-26T03:08:19.067Z,89.03
2017-07-26T03:10:47.423Z,89.63
2017-07-26T03:13:15.749Z,89.86
2017-07-26T03:15:44.110Z,88.23
2017-07-26T03:18:12.466Z,88.95
2017-07-26T03:20:40.782Z,89.56
2017-07-26T03:23:09.122Z,89.52
2017-07-26T03:25:37.451Z,89.99
2017-07-26T03:28:05.799Z,90.00
2017-07-26T03:30:34.138Z,89.64
2017-07-26T03:33:02.537Z,89.34
2017-07-26T03:35:30.873Z,89.18
2017-07-26T03:37:59.231Z,89.36
2017-07-26T03:40:27.572Z,89.12
2017-07-26T03:42:55.885Z,89.61
2017-07-26T03:45:24.224Z,89.74
2017-07-26T03:47:52.531Z,89.09
2017-07-26T03:50:20.864Z,89.82
2017-07-26T03:52:49.194Z,89.48
2017-07-26T03:55:17.542Z,89.22
2017-07-26T03:57:45.864Z,88.94
2017-07-26T04:00:14.478Z,89.73
2017-07-26T04:02:42.816Z,89.60
2017-07-26T04:05:11.151Z,89.17
2017-07-26T04:07:39.494Z,88.78
2017-07-26T04:10:07.833Z,89.23
2017-07-26T04:12:36.229Z,88.87
2017-07-26T04:15:04.556Z,89.17
2017-07-26T04:17:32.917Z,89.43
2017-07-26T04:20:01.280Z,89.34
2017-07-26T04:22:29.631Z,89.48
2017-07-26T04:24:58.001Z,89.29
2017-07-26T04:27:26.341Z,88.63
2017-07-26T04:29:54.700Z,88.76
2017-07-26T04:32:23.043Z,89.04
2017-07-26T04:34:51.391Z,89.04
2017-07-26T04:37:20.446Z,88.38
2017-07-26T04:39:49.073Z,88.58
2017-07-26T04:42:17.418Z,88.91
2017-07-26T04:44:45.751Z,87.07
2017-07-26T04:47:14.118Z,87.98
2017-07-26T04:49:42.506Z,88.26
2017-07-26T04:52:10.875Z,86.75
2017-07-26T04:54:39.215Z,87.16
2017-07-26T04:57:07.573Z,88.14
2017-07-26T04:59:35.913Z,87.98
2017-07-26T05:02:04.258Z,87.76
2017-07-26T05:04:32.614Z,87.19
2017-07-26T05:07:00.958Z,85.43
2017-07-26T05:09:29.304Z,85.28
2017-07-26T05:11:57.624Z,85.28
2017-07-26T05:14:25.982Z,86.31
2017-07-26T05:16:54.332Z,84.88
2017-07-26T05:19:22.663Z,84.16
2017-07-26T05:21:50.987Z,84.59
2017-07-26T05:24:19.331Z,85.97
2017-07-26T05:26:47.726Z,86.13
2017-07-26T05:29:16.054Z,85.50
2017-07-26T05:31:44.745Z,86.98
2017-07-26T05:34:13.080Z,86.64
2017-07-26T05:36:41.431Z,85.48
2017-07-26T05:39:09.771Z,86.54
2017-07-26T05:41:38.871Z,86.17
2017-07-26T05:44:07.221Z,86.20
2017-07-26T05:46:35.547Z,86.03
2017-07-26T05:49:03.892Z,84.31
2017-07-26T05:51:32.259Z,84.24
2017-07-26T05:54:00.572Z,84.34
2017-07-26T05:56:28.919Z,85.74
2017-07-26T05:58:57.256Z,86.53
2017-07-26T06:01:25.603Z,86.86
2017-07-26T06:03:53.938Z,85.69
2017-07-26T06:06:22.300Z,86.11
2017-07-26T06:08:50.616Z,85.77
2017-07-26T06:11:18.978Z,86.83
2017-07-26T06:13:47.331Z,87.16
2017-07-26T06:16:15.733Z,87.16
2017-07-26T06:18:44.098Z,87.22
2017-07-26T06:21:12.429Z,86.86
2017-07-26T06:23:40.783Z,86.81
2017-07-26T06:26:09.129Z,87.09
2017-07-26T06:28:37.472Z,84.53
2017-07-26T06:31:06.169Z,86.23
2017-07-26T06:33:34.545Z,86.69
2017-07-26T06:36:02.879Z,86.92
2017-07-26T06:38:31.260Z,87.34
2017-07-26T06:40:59.609Z,87.12
2017-07-26T06:43:27.948Z,86.81
2017-07-26T06:45:56.326Z,86.80
2017-07-26T06:48:24.667Z,85.74
2017-07-26T06:50:53.027Z,85.25
2017-07-26T06:53:21.359Z,85.69
2017-07-26T06:55:49.724Z,87.29
2017-07-26T06:58:18.070Z,85.42
2017-07-26T07:00:46.402Z,82.65
2017-07-26T07:03:14.765Z,80.91
2017-07-26T07:05:43.079Z,80.06
2017-07-26T07:08:12.206Z,82.97
2017-07-26T07:10:40.528Z,80.48
2017-07-26T07:13:09.246Z,80.02
2017-07-26T07:15:37.592Z,83.17
2017-07-26T07:18:05.936Z,83.12
2017-07-26T07:20:34.295Z,80.02
2017-07-26T07:23:02.633Z,80.93
2017-07-26T07:25:30.999Z,83.31
2017-07-26T07:27:59.337Z,82.98
2017-07-26T07:30:27.693Z,80.92
2017-07-26T07:32:56.039Z,81.03
2017-07-26T07:35:24.647Z,81.33
2017-07-26T07:37:52.983Z,80.29
2017-07-26T07:40:21.335Z,79.30
2017-07-26T07:42:49.707Z,80.65
2017-07-26T07:45:18.056Z,81.46
2017-07-26T07:47:46.477Z,77.60
2017-07-26T07:50:14.809Z,79.66
2017-07-26T07:52:43.558Z,81.75
2017-07-26T07:55:11.895Z,78.63
2017-07-26T07:57:41.322Z,80.80
2017-07-26T08:00:09.683Z,80.35
2017-07-26T08:02:38.022Z,80.47
2017-07-26T08:05:06.421Z,79.47
2017-07-26T08:07:34.748Z,77.81
2017-07-26T08:10:03.090Z,78.45
2017-07-26T08:12:31.456Z,76.79
2017-07-26T08:14:59.776Z,77.35
2017-07-26T08:17:28.123Z,78.97
2017-07-26T08:19:56.479Z,74.07
2017-07-26T08:22:24.844Z,75.57
2017-07-26T08:24:53.181Z,77.09
2017-07-26T08:27:21.845Z,76.79
2017-07-26T08:29:50.183Z,75.71
2017-07-26T08:32:18.503Z,76.02
2017-07-26T08:34:46.841Z,75.63
2017-07-26T08:37:15.162Z,76.71
2017-07-26T08:39:44.093Z,77.32
2017-07-26T08:42:12.422Z,77.22
2017-07-26T08:44:40.759Z,77.50
2017-07-26T08:47:09.109Z,78.99
2017-07-26T08:49:38.233Z,77.08
2017-07-26T08:52:06.585Z,78.02
2017-07-26T08:54:34.917Z,76.26
2017-07-26T08:57:03.609Z,77.91
2017-07-26T08:59:32.420Z,79.49
2017-07-26T09:02:00.754Z,75.87
2017-07-26T09:04:29.119Z,78.32
2017-07-26T09:06:57.452Z,77.16
2017-07-26T09:09:25.808Z,75.60
2017-07-26T09:11:54.129Z,75.94
2017-07-26T09:14:22.517Z,78.16
2017-07-26T09:16:51.631Z,78.49
2017-07-26T09:19:19.958Z,76.88
2017-07-26T09:21:48.363Z,74.40
2017-07-26T09:24:16.696Z,76.18
2017-07-26T09:26:45.450Z,78.31
2017-07-26T09:29:13.780Z,77.48
2017-07-26T09:31:42.117Z,76.52
2017-07-26T09:34:10.480Z,77.27
2017-07-26T09:36:39.597Z,75.69
2017-07-26T09:39:07.954Z,77.14
2017-07-26T09:41:36.304Z,77.75
2017-07-26T09:44:04.661Z,76.17
2017-07-26T09:46:33.018Z,76.77
2017-07-26T09:49:01.358Z,77.35
2017-07-26T09:51:29.705Z,73.99
2017-07-26T09:53:58.044Z,74.20
2017-07-26T09:56:26.413Z,75.58
2017-07-26T09:58:55.095Z,74.26
2017-07-26T10:01:23.468Z,74.75
2017-07-26T10:03:51.820Z,76.10
2017-07-26T10:06:20.151Z,75.75
2017-07-26T10:08:48.486Z,76.68
2017-07-26T10:11:16.838Z,74.44
2017-07-26T10:13:45.219Z,75.23
2017-07-26T10:16:13.565Z,73.50
2017-07-26T10:18:42.722Z,73.74
2017-07-26T10:21:11.051Z,72.30
2017-07-26T10:23:39.647Z,74.33
2017-07-26T10:26:07.988Z,72.20
2017-07-26T10:28:36.325Z,73.25
2017-07-26T10:31:04.666Z,72.28
2017-07-26T10:33:32.987Z,74.29
2017-07-26T10:36:01.346Z,74.10
2017-07-26T10:38:29.674Z,72.21
2017-07-26T10:40:58.015Z,72.25
2017-07-26T10:43:26.327Z,71.85
2017-07-26T10:45:54.671Z,71.78
2017-07-26T10:48:22.983Z,73.33
2017-07-26T10:50:51.319Z,71.91
2017-07-26T10:53:19.638Z,71.33
2017-07-26T10:55:47.981Z,73.10
2017-07-26T10:58:16.333Z,70.36
2017-07-26T11:00:45.437Z,72.06
2017-07-26T11:03:13.799Z,70.91
2017-07-26T11:05:42.131Z,70.54
2017-07-26T11:08:10.477Z,72.59
2017-07-26T11:10:38.806Z,69.51
2017-07-26T11:13:07.201Z,72.50
2017-07-26T11:15:35.547Z,71.02
2017-07-26T11:18:03.903Z,69.39
2017-07-26T11:20:32.263Z,69.52
2017-07-26T11:23:00.606Z,69.07
2017-07-26T11:25:28.971Z,68.51
2017-07-26T11:27:57.316Z,66.81
2017-07-26T11:30:25.689Z,67.64
2017-07-26T11:32:54.035Z,67.50
2017-07-26T11:35:22.757Z,65.05
2017-07-26T11:37:51.086Z,64.33
2017-07-26T11:40:19.405Z,66.02
2017-07-26T11:42:48.544Z,67.60
2017-07-26T11:45:16.901Z,64.26
2017-07-26T11:47:45.264Z,62.91
2017-07-26T11:50:13.640Z,64.14
2017-07-26T11:52:43.286Z,63.08
2017-07-26T11:55:11.623Z,62.79
2017-07-26T11:57:39.956Z,62.25
2017-07-26T12:00:08.298Z,62.72
2017-07-26T12:02:36.624Z,62.19
2017-07-26T12:05:04.984Z,62.23
2017-07-26T12:07:33.305Z,62.74
2017-07-26T12:10:01.676Z,62.57
2017-07-26T12:12:30.074Z,62.01
2017-07-26T12:14:58.401Z,63.59
2017-07-26T12:17:26.762Z,62.84
2017-07-26T12:19:55.102Z,60.62
2017-07-26T12:22:36.990Z,61.19
2017-07-26T12:25:06.067Z,60.76
2017-07-26T12:27:34.433Z,60.44
2017-07-26T12:30:02.773Z,61.99
2017-07-26T12:32:31.093Z,62.37
2017-07-26T12:34:59.436Z,61.43
2017-07-26T12:37:28.545Z,63.11
2017-07-26T12:39:56.888Z,62.65
2017-07-26T12:42:25.229Z,58.05
2017-07-26T12:44:53.580Z,58.83
2017-07-26T12:47:21.925Z,57.87
2017-07-26T12:49:50.771Z,55.44
2017-07-26T12:52:19.125Z,55.66
2017-07-26T12:54:47.495Z,54.90
2017-07-26T12:57:15.869Z,59.61
2017-07-26T12:59:44.225Z,55.50
2017-07-26T13:02:12.572Z,55.76
2017-07-26T13:04:40.915Z,56.22
2017-07-26T13:07:10.010Z,58.37
2017-07-26T13:09:38.362Z,58.86
2017-07-26T13:12:06.707Z,54.49
2017-07-26T13:14:35.054Z,54.43
2017-07-26T13:17:04.194Z,53.30
2017-07-26T13:19:32.560Z,54.95
2017-07-26T13:22:00.913Z,53.09
2017-07-26T13:24:29.247Z,52.34
2017-07-26T13:26:57.609Z,53.75
2017-07-26T13:29:26.000Z,51.48
2017-07-26T13:31:54.335Z,54.03
2017-07-26T13:34:23.438Z,53.63
2017-07-26T13:36:51.806Z,54.38
2017-07-26T13:39:20.199Z,51.30
2017-07-26T13:41:48.554Z,51.68
2017-07-26T13:44:16.913Z,50.32
2017-07-26T13:46:45.242Z,50.87
2017-07-26T13:49:13.604Z,49.15
2017-07-26T13:51:42.692Z,50.75
2017-07-26T13:54:11.030Z,49.54
2017-07-26T13:56:39.345Z,49.67
2017-07-26T13:59:08.552Z,50.51
2017-07-26T14:01:36.891Z,51.24
2017-07-26T14:04:05.533Z,49.75
2017-07-26T14:06:33.867Z,51.21
2017-07-26T14:09:02.206Z,49.49
2017-07-26T14:11:30.569Z,48.96
2017-07-26T14:13:58.900Z,48.85
2017-07-26T14:16:28.063Z,51.29
2017-07-26T14:18:56.391Z,48.73
2017-07-26T14:21:24.746Z,48.70
2017-07-26T14:23:53.122Z,47.24
2017-07-26T14:26:21.473Z,48.68
2017-07-26T14:28:49.875Z,48.45
2017-07-26T14:31:18.238Z,48.53
2017-07-26T14:33:46.598Z,48.62
2017-07-26T14:42:15.722Z,46.69
2017-07-26T14:44:45.600Z,45.89
2017-07-26T14:47:13.983Z,46.07
2017-07-26T14:49:52.877Z,46.05
2017-07-26T14:52:21.292Z,45.65
2017-07-26T14:54:49.780Z,44.98
2017-07-26T14:57:18.139Z,44.28
2017-07-26T14:59:46.501Z,47.36
2017-07-26T15:02:14.849Z,45.75
2017-07-26T15:04:43.208Z,44.90
2017-07-26T15:07:11.543Z,45.26
2017-07-26T15:09:40.150Z,41.65
2017-07-26T15:12:08.485Z,42.16
2017-07-26T15:14:37.634Z,42.85
2017-07-26T15:17:06.684Z,42.44
2017-07-26T15:19:35.036Z,42.20
2017-07-26T15:22:03.378Z,44.61
2017-07-26T15:24:31.723Z,42.19
2017-07-26T15:27:00.047Z,40.79
2017-07-26T15:29:28.386Z,42.67
2017-07-26T15:31:56.713Z,43.45
2017-07-26T15:34:25.108Z,44.17
2017-07-26T15:36:53.450Z,43.30
2017-07-26T15:39:21.831Z,43.69
2017-07-26T15:41:50.627Z,44.10
2017-07-26T15:44:18.940Z,45.21
2017-07-26T15:46:47.571Z,44.53
2017-07-26T15:49:15.932Z,44.25
2017-07-26T15:51:44.275Z,44.33
2017-07-26T15:54:12.651Z,43.91
2017-07-26T15:56:40.995Z,44.56
2017-07-26T15:59:09.616Z,44.00
2017-07-26T16:01:37.948Z,46.20
2017-07-26T16:04:06.935Z,47.12
2017-07-26T16:06:35.274Z,47.01
2017-07-26T16:09:03.587Z,46.06
2017-07-26T16:11:31.964Z,47.14
2017-07-26T16:14:00.319Z,45.66
2017-07-26T16:16:28.671Z,48.78
2017-07-26T16:18:57.030Z,48.52
2017-07-26T16:21:25.358Z,49.67
2017-07-26T16:23:53.774Z,48.70
2017-07-26T16:26:22.115Z,48.85
2017-07-26T16:28:50.459Z,51.24
2017-07-26T16:31:18.841Z,51.40
2017-07-26T16:33:47.172Z,49.77
2017-07-26T16:36:15.529Z,49.77
2017-07-26T16:38:43.867Z,49.51
2017-07-26T16:41:12.499Z,49.10
2017-07-26T16:43:40.882Z,48.44
2017-07-26T16:46:09.234Z,50.88
2017-07-26T16:48:37.590Z,50.27
2017-07-26T16:51:05.931Z,52.79
2017-07-26T16:53:34.274Z,51.38
2017-07-26T16:56:02.667Z,50.67
2017-07-26T16:58:31.008Z,51.29
2017-07-26T17:00:59.637Z,51.74
2017-07-26T17:03:27.967Z,52.99
2017-07-26T17:05:56.300Z,53.44
2017-07-26T17:08:24.658Z,51.63
2017-07-26T17:10:52.985Z,52.05
2017-07-26T17:13:21.618Z,52.03
2017-07-26T17:15:49.950Z,52.73
2017-07-26T17:18:18.332Z,55.97
2017-07-26T17:20:46.720Z,55.86
2017-07-26T17:23:15.039Z,55.71
2017-07-26T17:25:43.662Z,56.32
2017-07-26T17:28:11.997Z,56.99
2017-07-26T17:30:40.359Z,57.54
2017-07-26T17:33:08.720Z,57.54
2017-07-26T17:35:37.066Z,59.45
2017-07-26T17:38:05.416Z,60.00
2017-07-26T17:40:33.752Z,59.94
2017-07-26T17:43:02.133Z,60.92
2017-07-26T17:45:30.779Z,61.32
2017-07-26T17:47:59.796Z,61.27
2017-07-26T17:50:28.111Z,61.34
2017-07-26T17:52:56.485Z,61.24
2017-07-26T17:55:24.825Z,62.85
2017-07-26T17:57:53.434Z,63.74
2017-07-26T18:00:21.770Z,63.26
2017-07-26T18:02:50.103Z,64.21
2017-07-26T18:05:18.472Z,64.44
2017-07-26T18:07:46.813Z,63.57
2017-07-26T18:10:15.415Z,65.71
2017-07-26T18:12:43.749Z,65.51
2017-07-26T18:15:12.172Z,65.09
2017-07-26T18:17:40.546Z,66.27
2017-07-26T18:20:08.882Z,66.73
2017-07-26T18:22:37.234Z,67.25
2017-07-26T18:25:05.565Z,67.73
2017-07-26T18:27:33.965Z,68.10
2017-07-26T18:30:02.350Z,67.94
2017-07-26T18:32:30.708Z,68.86
2017-07-26T18:34:59.358Z,69.32
2017-07-26T18:37:27.710Z,69.74
2017-07-26T18:39:56.059Z,69.83
2017-07-26T18:42:24.439Z,70.73
2017-07-26T18:44:52.786Z,70.62
2017-07-26T18:47:21.147Z,70.50
2017-07-26T18:49:49.513Z,70.67
2017-07-26T18:52:17.876Z,71.23
2017-07-26T18:54:46.247Z,71.21
2017-07-26T18:57:14.607Z,71.02
2017-07-26T18:59:43.001Z,71.59
2017-07-26T19:02:11.349Z,71.70
2017-07-26T19:04:39.719Z,71.98
2017-07-26T19:07:08.120Z,72.34
2017-07-26T19:09:36.491Z,72.51
2017-07-26T19:12:04.835Z,72.53
2017-07-26T19:14:33.200Z,72.83
2017-07-26T19:17:01.538Z,73.28
2017-07-26T19:19:29.913Z,73.76
2017-07-26T19:21:58.275Z,74.28
2017-07-26T19:24:26.630Z,74.39
2017-07-26T19:26:54.998Z,74.28
2017-07-26T19:29:23.320Z,74.06
2017-07-26T19:31:51.914Z,74.06
2017-07-26T19:34:20.359Z,74.47
2017-07-26T19:36:48.683Z,74.89
2017-07-26T19:39:19.585Z,74.62
2017-07-26T19:41:47.934Z,75.34
2017-07-26T19:44:16.280Z,76.07
2017-07-26T19:46:44.624Z,76.01
2017-07-26T19:49:12.977Z,76.08
2017-07-26T19:51:41.323Z,75.83
2017-07-26T19:54:09.654Z,76.22
2017-07-26T19:56:38.038Z,76.56
2017-07-26T19:59:06.384Z,76.89
2017-07-26T20:01:34.741Z,76.43
2017-07-26T20:04:03.091Z,76.50
2017-07-26T20:06:31.437Z,75.41
2017-07-26T20:08:59.795Z,76.33
2017-07-26T20:11:28.162Z,77.49
2017-07-26T20:13:56.489Z,76.48
2017-07-26T20:16:24.837Z,76.51
2017-07-26T20:18:53.201Z,76.87
2017-07-26T20:21:21.882Z,77.39
2017-07-26T20:23:50.223Z,77.88
2017-07-26T20:26:18.566Z,76.85
2017-07-26T20:28:46.935Z,77.93
2017-07-26T20:31:15.270Z,78.46
2017-07-26T20:33:44.655Z,78.58
2017-07-26T20:36:12.977Z,78.52
2017-07-26T20:38:41.305Z,78.65
2017-07-26T20:41:09.691Z,78.65
2017-07-26T20:43:38.030Z,79.00
2017-07-26T20:46:06.388Z,78.34
2017-07-26T20:48:34.745Z,78.47
2017-07-26T20:51:03.092Z,79.06
2017-07-26T20:53:31.458Z,78.38
2017-07-26T20:55:59.804Z,78.39
2017-07-26T20:58:28.271Z,78.66
2017-07-26T21:00:56.610Z,79.31
2017-07-26T21:03:24.969Z,79.77
2017-07-26T21:05:53.657Z,79.43
2017-07-26T21:08:22.011Z,79.52
2017-07-26T21:10:50.353Z,79.01
2017-07-26T21:13:18.705Z,79.06
2017-07-26T21:15:47.039Z,80.36
2017-07-26T21:18:15.678Z,79.76
2017-07-26T21:20:44.005Z,79.10
2017-07-26T21:23:12.348Z,79.33
2017-07-26T21:25:40.712Z,79.97
2017-07-26T21:28:09.047Z,80.04
2017-07-26T21:30:37.433Z,80.52
2017-07-26T21:33:05.760Z,80.93
2017-07-26T21:35:34.121Z,81.09
2017-07-26T21:38:02.497Z,81.26
2017-07-26T21:40:30.820Z,80.84
2017-07-26T21:42:59.159Z,81.13
2017-07-26T21:45:27.494Z,81.33
2017-07-26T21:47:55.815Z,81.49
2017-07-26T21:50:24.152Z,81.26
2017-07-26T21:52:52.517Z,81.50
2017-07-26T21:55:20.875Z,81.25
2017-07-26T21:57:49.194Z,81.13
2017-07-26T22:00:17.537Z,81.20
2017-07-26T22:02:45.860Z,81.43
2017-07-26T22:05:14.450Z,81.36
2017-07-26T22:07:42.778Z,80.83
2017-07-26T22:10:11.099Z,80.90
2017-07-26T22:12:39.476Z,81.35
2017-07-26T22:15:07.801Z,81.60
2017-07-26T22:17:36.142Z,82.13
2017-07-26T22:20:04.497Z,81.28
2017-07-26T22:22:32.860Z,80.81
2017-07-26T22:25:01.236Z,81.35
2017-07-26T22:27:29.569Z,81.65
2017-07-26T22:29:57.991Z,81.67
2017-07-26T22:32:26.339Z,81.34
2017-07-26T22:34:54.674Z,81.25
2017-07-26T22:37:23.021Z,81.83
2017-07-26T22:39:51.360Z,82.13
2017-07-26T22:42:19.684Z,81.94
2017-07-26T22:44:48.296Z,81.77
2017-07-26T22:47:16.616Z,81.99
2017-07-26T22:49:44.956Z,81.81
2017-07-26T22:52:13.305Z,82.02
2017-07-26T22:54:41.643Z,81.44
2017-07-26T22:57:09.981Z,81.00
2017-07-26T22:59:38.392Z,81.57
2017-07-26T23:02:06.769Z,81.54
2017-07-26T23:04:35.124Z,82.15
2017-07-26T23:07:03.443Z,82.35
2017-07-26T23:09:31.786Z,82.34
2017-07-26T23:12:00.146Z,82.43
2017-07-26T23:14:28.468Z,82.36
2017-07-26T23:16:56.815Z,82.10
2017-07-26T23:19:25.146Z,82.44
2017-07-26T23:21:53.504Z,82.24
2017-07-26T23:24:21.862Z,82.72
2017-07-26T23:26:50.200Z,82.43
2017-07-26T23:29:18.818Z,82.30
2017-07-26T23:31:47.154Z,82.22
2017-07-26T23:34:15.498Z,82.20
2017-07-26T23:36:43.885Z,81.94
2017-07-26T23:39:12.232Z,81.66
2017-07-26T23:41:40.571Z,81.70
2017-07-26T23:44:08.897Z,82.13
2017-07-26T23:46:37.258Z,82.47
2017-07-26T23:49:05.578Z,82.83
2017-07-26T23:51:33.936Z,82.80
2017-07-26T23:54:02.285Z,83.21
2017-07-26T23:56:30.627Z,83.29
2017-07-26T23:58:58.993Z,83.22
